Terminal Aerodrome Forecast
Issued by NWS Charleston, WV

Current Version | Previous Version | Graphics & Text | Print | Product List | Glossary On
Versions: 1 2 3 4 5 6 7 8 9 10 11 12 13 14 15 16 17 18 19 20 21 22 23 24
000
FTUS41 KRLX 022300
TAFEKN
TAF
KEKN 022321Z 0300/0324 30006KT P6SM FEW250
     FM030900 VRB04KT P6SM SCT200
     FM031400 15007KT P6SM BKN070
     FM031600 15008KT P6SM -FZRA OVC040
     FM031700 16009KT 6SM -RA BR OVC025
     FM032200 19010G15KT 3SM -RA BR OVC010=

USA.gov is the U.S. government's official web portal to all federal, state and local government web resources and services.